sensor_id;sensor_type;location;lat;lon;timestamp;pressure;altitude;pressure_sealevel;temperature;humidity
77013;BME280;67260;53.130;17.982;2023-06-01T00:00:48;101198.28;;;12.66;52.88
77013;BME280;67260;53.130;17.982;2023-06-01T00:03:36;101194.88;;;12.61;52.88
77013;BME280;67260;53.130;17.982;2023-06-01T00:06:02;101196.17;;;12.56;53.01
77013;BME280;67260;53.130;17.982;2023-06-01T00:08:28;101196.50;;;12.53;53.01
77013;BME280;67260;53.130;17.982;2023-06-01T00:10:55;101191.56;;;12.45;53.09
77013;BME280;67260;53.130;17.982;2023-06-01T00:13:21;101195.58;;;12.30;53.29
77013;BME280;67260;53.130;17.982;2023-06-01T00:15:47;101193.04;;;12.16;53.53
77013;BME280;67260;53.130;17.982;2023-06-01T00:18:14;101189.96;;;12.10;53.69
77013;BME280;67260;53.130;17.982;2023-06-01T00:20:41;101187.46;;;12.13;54.03
77013;BME280;67260;53.130;17.982;2023-06-01T00:23:07;101188.45;;;12.16;54.09
77013;BME280;67260;53.130;17.982;2023-06-01T00:25:36;101190.13;;;12.21;54.29
77013;BME280;67260;53.130;17.982;2023-06-01T00:28:02;101190.95;;;12.17;54.51
77013;BME280;67260;53.130;17.982;2023-06-01T00:30:28;101187.10;;;12.10;55.06
77013;BME280;67260;53.130;17.982;2023-06-01T00:32:55;101187.27;;;12.03;55.48
77013;BME280;67260;53.130;17.982;2023-06-01T00:35:21;101188.89;;;11.93;55.91
77013;BME280;67260;53.130;17.982;2023-06-01T00:37:47;101189.21;;;11.85;56.42
77013;BME280;67260;53.130;17.982;2023-06-01T00:40:13;101191.02;;;11.85;55.78
77013;BME280;67260;53.130;17.982;2023-06-01T00:42:39;101186.02;;;11.83;55.62
77013;BME280;67260;53.130;17.982;2023-06-01T00:45:05;101182.96;;;11.76;56.46
77013;BME280;67260;53.130;17.982;2023-06-01T00:47:41;101182.48;;;11.71;56.76
77013;BME280;67260;53.130;17.982;2023-06-01T00:50:11;101182.73;;;11.66;56.91
77013;BME280;67260;53.130;17.982;2023-06-01T00:52:38;101181.98;;;11.63;56.96
77013;BME280;67260;53.130;17.982;2023-06-01T00:55:06;101181.63;;;11.66;57.33
77013;BME280;67260;53.130;17.982;2023-06-01T00:57:33;101176.98;;;11.62;57.35
77013;BME280;67260;53.130;17.982;2023-06-01T01:00:02;101176.37;;;11.60;57.39
77013;BME280;67260;53.130;17.982;2023-06-01T01:02:41;101175.27;;;11.59;56.82
77013;BME280;67260;53.130;17.982;2023-06-01T01:05:09;101177.95;;;11.58;56.85
77013;BME280;67260;53.130;17.982;2023-06-01T01:08:00;101178.78;;;11.58;57.16
77013;BME280;67260;53.130;17.982;2023-06-01T01:13:32;101170.68;;;11.63;57.59
77013;BME280;67260;53.130;17.982;2023-06-01T01:18:38;101167.20;;;11.60;57.87
77013;BME280;67260;53.130;17.982;2023-06-01T01:21:09;101167.48;;;11.59;58.15
77013;BME280;67260;53.130;17.982;2023-06-01T01:29:29;101167.01;;;11.33;58.27
77013;BME280;67260;53.130;17.982;2023-06-01T01:31:59;101165.73;;;11.27;59.14
77013;BME280;67260;53.130;17.982;2023-06-01T01:34:27;101167.66;;;11.20;59.12
77013;BME280;67260;53.130;17.982;2023-06-01T01:36:55;101169.05;;;11.11;59.70
77013;BME280;67260;53.130;17.982;2023-06-01T01:39:21;101166.20;;;11.03;59.91
77013;BME280;67260;53.130;17.982;2023-06-01T01:41:47;101167.15;;;10.97;59.56
77013;BME280;67260;53.130;17.982;2023-06-01T01:44:14;101165.65;;;10.91;59.74
77013;BME280;67260;53.130;17.982;2023-06-01T01:47:19;101160.79;;;10.89;60.10
77013;BME280;67260;53.130;17.982;2023-06-01T01:49:49;101160.88;;;10.90;60.42
77013;BME280;67260;53.130;17.982;2023-06-01T01:52:22;101160.81;;;10.87;59.94
77013;BME280;67260;53.130;17.982;2023-06-01T01:54:53;101158.88;;;10.90;60.25
77013;BME280;67260;53.130;17.982;2023-06-01T01:57:22;101152.14;;;10.84;60.10
77013;BME280;67260;53.130;17.982;2023-06-01T01:59:49;101152.67;;;10.77;60.23
77013;BME280;67260;53.130;17.982;2023-06-01T02:02:16;101147.32;;;10.77;60.46
77013;BME280;67260;53.130;17.982;2023-06-01T02:04:44;101144.74;;;10.77;60.68
77013;BME280;67260;53.130;17.982;2023-06-01T02:07:12;101140.42;;;10.80;60.86
77013;BME280;67260;53.130;17.982;2023-06-01T02:09:38;101143.84;;;10.85;60.63
77013;BME280;67260;53.130;17.982;2023-06-01T02:12:05;101146.05;;;10.85;60.48
77013;BME280;67260;53.130;17.982;2023-06-01T02:14:33;101143.87;;;10.82;60.62
77013;BME280;67260;53.130;17.982;2023-06-01T02:16:59;101145.77;;;10.80;60.88
77013;BME280;67260;53.130;17.982;2023-06-01T02:19:27;101142.11;;;10.81;60.86
77013;BME280;67260;53.130;17.982;2023-06-01T02:21:53;101142.15;;;10.80;60.79
77013;BME280;67260;53.130;17.982;2023-06-01T02:24:19;101145.60;;;10.77;60.76
77013;BME280;67260;53.130;17.982;2023-06-01T02:26:45;101142.55;;;10.70;60.89
77013;BME280;67260;53.130;17.982;2023-06-01T02:29:13;101142.80;;;10.65;61.33
77013;BME280;67260;53.130;17.982;2023-06-01T02:31:39;101141.55;;;10.61;61.72
77013;BME280;67260;53.130;17.982;2023-06-01T02:34:06;101140.10;;;10.65;61.60
77013;BME280;67260;53.130;17.982;2023-06-01T02:36:32;101142.98;;;10.62;61.39
77013;BME280;67260;53.130;17.982;2023-06-01T02:39:00;101142.26;;;10.48;61.45
77013;BME280;67260;53.130;17.982;2023-06-01T02:41:26;101142.97;;;10.44;61.13
77013;BME280;67260;53.130;17.982;2023-06-01T02:43:52;101141.02;;;10.44;61.13
77013;BME280;67260;53.130;17.982;2023-06-01T02:46:19;101140.60;;;10.53;61.27
77013;BME280;67260;53.130;17.982;2023-06-01T02:48:46;101136.50;;;10.57;61.55
77013;BME280;67260;53.130;17.982;2023-06-01T02:51:12;101134.10;;;10.58;61.36
77013;BME280;67260;53.130;17.982;2023-06-01T02:53:40;101137.23;;;10.63;61.24
77013;BME280;67260;53.130;17.982;2023-06-01T02:56:06;101138.02;;;10.67;61.26
77013;BME280;67260;53.130;17.982;2023-06-01T02:58:53;101132.06;;;10.68;61.04
77013;BME280;67260;53.130;17.982;2023-06-01T03:01:31;101127.30;;;10.72;60.89
77013;BME280;67260;53.130;17.982;2023-06-01T03:04:02;101122.44;;;10.81;60.32
77013;BME280;67260;53.130;17.982;2023-06-01T03:06:33;101123.00;;;10.88;60.02
77013;BME280;67260;53.130;17.982;2023-06-01T03:09:17;101120.91;;;10.96;59.84
77013;BME280;67260;53.130;17.982;2023-06-01T03:11:50;101120.95;;;11.09;59.43
77013;BME280;67260;53.130;17.982;2023-06-01T03:14:16;101120.66;;;11.20;58.77
77013;BME280;67260;53.130;17.982;2023-06-01T03:16:42;101122.65;;;11.32;58.41
77013;BME280;67260;53.130;17.982;2023-06-01T03:19:14;101123.70;;;11.78;58.05
77013;BME280;67260;53.130;17.982;2023-06-01T03:21:40;101125.14;;;12.49;57.01
77013;BME280;67260;53.130;17.982;2023-06-01T03:24:07;101125.80;;;13.00;56.08
77013;BME280;67260;53.130;17.982;2023-06-01T03:26:33;101124.62;;;13.40;55.35
77013;BME280;67260;53.130;17.982;2023-06-01T03:28:59;101121.17;;;13.83;54.63
77013;BME280;67260;53.130;17.982;2023-06-01T03:31:26;101118.07;;;14.34;54.00
77013;BME280;67260;53.130;17.982;2023-06-01T03:33:54;101116.43;;;14.90;52.70
77013;BME280;67260;53.130;17.982;2023-06-01T03:36:20;101117.98;;;15.28;51.66
77013;BME280;67260;53.130;17.982;2023-06-01T03:38:47;101116.73;;;15.62;50.85
77013;BME280;67260;53.130;17.982;2023-06-01T03:41:13;101117.77;;;16.08;49.76
77013;BME280;67260;53.130;17.982;2023-06-01T03:43:39;101116.95;;;16.55;47.49
77013;BME280;67260;53.130;17.982;2023-06-01T03:46:06;101111.63;;;16.92;46.34
77013;BME280;67260;53.130;17.982;2023-06-01T03:48:33;101113.48;;;17.33;45.60
77013;BME280;67260;53.130;17.982;2023-06-01T03:50:59;101110.64;;;17.86;44.95
77013;BME280;67260;53.130;17.982;2023-06-01T03:53:25;101106.61;;;18.50;43.91
77013;BME280;67260;53.130;17.982;2023-06-01T03:55:52;101104.77;;;19.08;42.70
77013;BME280;67260;53.130;17.982;2023-06-01T03:58:34;101106.50;;;19.52;41.58
77013;BME280;67260;53.130;17.982;2023-06-01T04:01:01;101103.88;;;19.84;40.72
77013;BME280;67260;53.130;17.982;2023-06-01T04:03:28;101109.09;;;20.06;39.62
77013;BME280;67260;53.130;17.982;2023-06-01T04:05:54;101104.86;;;20.35;39.37
77013;BME280;67260;53.130;17.982;2023-06-01T04:08:25;101105.30;;;20.72;38.56
77013;BME280;67260;53.130;17.982;2023-06-01T04:10:52;101102.71;;;21.16;38.16
77013;BME280;67260;53.130;17.982;2023-06-01T04:13:18;101104.66;;;21.73;36.95
77013;BME280;67260;53.130;17.982;2023-06-01T04:15:47;101100.17;;;22.12;36.06
77013;BME280;67260;53.130;17.982;2023-06-01T04:18:15;101093.42;;;22.47;35.94
77013;BME280;67260;53.130;17.982;2023-06-01T04:21:02;101090.89;;;22.81;35.18
77013;BME280;67260;53.130;17.982;2023-06-01T04:23:28;101084.73;;;23.31;34.59
77013;BME280;67260;53.130;17.982;2023-06-01T04:25:55;101083.55;;;23.97;33.47
77013;BME280;67260;53.130;17.982;2023-06-01T04:28:24;101084.94;;;24.40;32.70
77013;BME280;67260;53.130;17.982;2023-06-01T04:30:50;101085.06;;;24.78;32.29
77013;BME280;67260;53.130;17.982;2023-06-01T04:33:17;101083.26;;;25.30;31.61
77013;BME280;67260;53.130;17.982;2023-06-01T04:35:43;101078.78;;;25.77;30.84
77013;BME280;67260;53.130;17.982;2023-06-01T04:38:10;101072.36;;;26.20;30.24
77013;BME280;67260;53.130;17.982;2023-06-01T04:40:37;101072.10;;;26.70;29.50
77013;BME280;67260;53.130;17.982;2023-06-01T04:43:04;101069.41;;;27.14;28.75
77013;BME280;67260;53.130;17.982;2023-06-01T04:45:31;101064.90;;;27.49;28.05
77013;BME280;67260;53.130;17.982;2023-06-01T04:47:57;101066.42;;;27.73;27.98
77013;BME280;67260;53.130;17.982;2023-06-01T04:50:37;101063.99;;;27.97;27.11
77013;BME280;67260;53.130;17.982;2023-06-01T04:53:04;101066.27;;;28.15;27.24
77013;BME280;67260;53.130;17.982;2023-06-01T04:55:30;101066.30;;;28.54;26.41
77013;BME280;67260;53.130;17.982;2023-06-01T04:57:58;101065.83;;;28.81;26.38
77013;BME280;67260;53.130;17.982;2023-06-01T05:00:24;101063.96;;;29.14;26.06
77013;BME280;67260;53.130;17.982;2023-06-01T05:02:50;101068.20;;;29.50;25.63
77013;BME280;67260;53.130;17.982;2023-06-01T05:05:16;101064.06;;;29.92;25.01
77013;BME280;67260;53.130;17.982;2023-06-01T05:07:43;101063.24;;;30.08;24.63
77013;BME280;67260;53.130;17.982;2023-06-01T05:10:11;101060.52;;;30.10;24.74
77013;BME280;67260;53.130;17.982;2023-06-01T05:12:47;101053.61;;;30.48;24.23
77013;BME280;67260;53.130;17.982;2023-06-01T05:15:15;101052.36;;;30.99;24.00
77013;BME280;67260;53.130;17.982;2023-06-01T05:17:42;101053.15;;;31.50;23.71
77013;BME280;67260;53.130;17.982;2023-06-01T05:20:14;101047.52;;;32.11;22.88
77013;BME280;67260;53.130;17.982;2023-06-01T05:22:42;101044.48;;;32.49;22.54
77013;BME280;67260;53.130;17.982;2023-06-01T05:25:09;101043.25;;;32.79;22.09
77013;BME280;67260;53.130;17.982;2023-06-01T05:27:35;101038.59;;;32.99;22.12
77013;BME280;67260;53.130;17.982;2023-06-01T05:30:03;101037.27;;;33.29;21.93
77013;BME280;67260;53.130;17.982;2023-06-01T05:32:29;101039.35;;;33.57;21.62
77013;BME280;67260;53.130;17.982;2023-06-01T05:35:02;101040.48;;;33.70;21.48
77013;BME280;67260;53.130;17.982;2023-06-01T05:37:30;101032.22;;;33.95;21.32
77013;BME280;67260;53.130;17.982;2023-06-01T05:39:56;101032.62;;;34.29;21.05
77013;BME280;67260;53.130;17.982;2023-06-01T05:42:22;101033.27;;;34.65;20.94
77013;BME280;67260;53.130;17.982;2023-06-01T05:44:48;101034.17;;;34.97;20.80
77013;BME280;67260;53.130;17.982;2023-06-01T05:47:14;101028.45;;;35.12;20.52
77013;BME280;67260;53.130;17.982;2023-06-01T05:49:41;101030.63;;;35.39;20.25
77013;BME280;67260;53.130;17.982;2023-06-01T05:52:08;101028.62;;;35.74;19.91
77013;BME280;67260;53.130;17.982;2023-06-01T05:54:35;101023.66;;;35.74;20.08
77013;BME280;67260;53.130;17.982;2023-06-01T05:57:02;101023.46;;;36.01;19.79
77013;BME280;67260;53.130;17.982;2023-06-01T05:59:28;101021.65;;;36.39;19.34
77013;BME280;67260;53.130;17.982;2023-06-01T06:01:54;101022.09;;;36.85;19.24
77013;BME280;67260;53.130;17.982;2023-06-01T06:04:20;101024.77;;;37.18;18.90
77013;BME280;67260;53.130;17.982;2023-06-01T06:06:47;101028.20;;;37.56;18.87
77013;BME280;67260;53.130;17.982;2023-06-01T06:09:13;101020.59;;;37.80;18.37
77013;BME280;67260;53.130;17.982;2023-06-01T06:11:41;101019.03;;;38.07;18.41
77013;BME280;67260;53.130;17.982;2023-06-01T06:14:08;101018.05;;;38.41;18.10
77013;BME280;67260;53.130;17.982;2023-06-01T06:16:37;101014.52;;;38.54;17.75
77013;BME280;67260;53.130;17.982;2023-06-01T06:19:03;101011.80;;;38.46;17.90
77013;BME280;67260;53.130;17.982;2023-06-01T06:21:29;101010.94;;;38.30;17.76
77013;BME280;67260;53.130;17.982;2023-06-01T06:23:56;101009.33;;;37.71;18.09
77013;BME280;67260;53.130;17.982;2023-06-01T06:26:25;101010.46;;;37.45;18.61
77013;BME280;67260;53.130;17.982;2023-06-01T06:28:54;101013.30;;;37.92;18.22
77013;BME280;67260;53.130;17.982;2023-06-01T06:31:21;101014.21;;;38.72;17.90
77013;BME280;67260;53.130;17.982;2023-06-01T06:33:47;101011.45;;;39.36;17.40
77013;BME280;67260;53.130;17.982;2023-06-01T06:36:14;101012.82;;;39.61;17.04
77013;BME280;67260;53.130;17.982;2023-06-01T06:38:40;101009.62;;;39.98;17.03
77013;BME280;67260;53.130;17.982;2023-06-01T06:41:06;101002.76;;;40.42;16.54
77013;BME280;67260;53.130;17.982;2023-06-01T06:43:32;101004.14;;;40.66;16.16
77013;BME280;67260;53.130;17.982;2023-06-01T06:45:58;101005.75;;;40.84;15.81
77013;BME280;67260;53.130;17.982;2023-06-01T06:48:24;101001.42;;;40.70;15.89
77013;BME280;67260;53.130;17.982;2023-06-01T06:50:50;101002.27;;;40.81;15.75
77013;BME280;67260;53.130;17.982;2023-06-01T06:53:16;100998.27;;;40.83;15.75
77013;BME280;67260;53.130;17.982;2023-06-01T06:55:43;100999.95;;;41.07;15.82
77013;BME280;67260;53.130;17.982;2023-06-01T06:58:10;101001.71;;;41.32;15.89
77013;BME280;67260;53.130;17.982;2023-06-01T07:00:37;100999.05;;;41.55;15.26
77013;BME280;67260;53.130;17.982;2023-06-01T07:03:03;100997.17;;;41.92;15.13
77013;BME280;67260;53.130;17.982;2023-06-01T07:05:29;100991.42;;;42.39;14.97
77013;BME280;67260;53.130;17.982;2023-06-01T07:07:55;100993.67;;;42.67;14.77
77013;BME280;67260;53.130;17.982;2023-06-01T07:10:21;100992.75;;;42.94;14.46
77013;BME280;67260;53.130;17.982;2023-06-01T07:12:47;100995.60;;;43.33;14.19
77013;BME280;67260;53.130;17.982;2023-06-01T07:15:14;100995.55;;;43.45;14.11
77013;BME280;67260;53.130;17.982;2023-06-01T07:17:40;100995.38;;;43.70;14.08
77013;BME280;67260;53.130;17.982;2023-06-01T07:20:07;100992.52;;;44.03;13.73
77013;BME280;67260;53.130;17.982;2023-06-01T07:22:33;100990.63;;;44.34;13.47
77013;BME280;67260;53.130;17.982;2023-06-01T07:24:59;100986.64;;;44.56;13.19
77013;BME280;67260;53.130;17.982;2023-06-01T07:27:26;100988.49;;;44.66;13.13
77013;BME280;67260;53.130;17.982;2023-06-01T07:29:52;100988.41;;;44.84;13.08
77013;BME280;67260;53.130;17.982;2023-06-01T07:32:22;100991.73;;;44.79;13.00
77013;BME280;67260;53.130;17.982;2023-06-01T07:34:48;100982.20;;;44.82;13.01
77013;BME280;67260;53.130;17.982;2023-06-01T07:37:14;100981.67;;;44.59;12.88
77013;BME280;67260;53.130;17.982;2023-06-01T07:39:40;100985.21;;;43.61;13.27
77013;BME280;67260;53.130;17.982;2023-06-01T07:42:06;100984.46;;;43.19;13.71
77013;BME280;67260;53.130;17.982;2023-06-01T07:44:33;100975.16;;;42.94;13.70
77013;BME280;67260;53.130;17.982;2023-06-01T07:46:58;100973.48;;;42.31;14.42
77013;BME280;67260;53.130;17.982;2023-06-01T07:49:24;100976.61;;;42.15;14.56
77013;BME280;67260;53.130;17.982;2023-06-01T07:51:50;100979.41;;;42.36;14.38
77013;BME280;67260;53.130;17.982;2023-06-01T07:54:18;100977.81;;;42.41;14.59
77013;BME280;67260;53.130;17.982;2023-06-01T07:56:44;100977.11;;;42.52;14.65
77013;BME280;67260;53.130;17.982;2023-06-01T07:59:10;100969.89;;;43.05;14.29
77013;BME280;67260;53.130;17.982;2023-06-01T08:01:36;100967.90;;;43.10;14.00
77013;BME280;67260;53.130;17.982;2023-06-01T08:04:03;100970.24;;;43.23;14.26
77013;BME280;67260;53.130;17.982;2023-06-01T08:06:29;100969.52;;;43.84;13.97
77013;BME280;67260;53.130;17.982;2023-06-01T08:09:02;100970.11;;;43.86;13.78
77013;BME280;67260;53.130;17.982;2023-06-01T08:11:28;100971.45;;;43.04;13.87
77013;BME280;67260;53.130;17.982;2023-06-01T08:13:55;100969.77;;;41.74;14.71
77013;BME280;67260;53.130;17.982;2023-06-01T08:16:21;100966.90;;;42.18;14.61
77013;BME280;67260;53.130;17.982;2023-06-01T08:18:46;100968.63;;;42.88;14.27
77013;BME280;67260;53.130;17.982;2023-06-01T08:21:12;100962.14;;;42.67;14.62
77013;BME280;67260;53.130;17.982;2023-06-01T08:23:38;100961.73;;;43.17;14.49
77013;BME280;67260;53.130;17.982;2023-06-01T08:26:04;100954.73;;;41.96;14.89
77013;BME280;67260;53.130;17.982;2023-06-01T08:28:31;100955.78;;;41.60;15.05
77013;BME280;67260;53.130;17.982;2023-06-01T08:30:58;100957.77;;;42.59;14.97
77013;BME280;67260;53.130;17.982;2023-06-01T08:33:24;100957.71;;;43.43;14.09
77013;BME280;67260;53.130;17.982;2023-06-01T08:35:50;100952.23;;;42.90;13.98
77013;BME280;67260;53.130;17.982;2023-06-01T08:38:16;100948.54;;;42.27;14.39
77013;BME280;67260;53.130;17.982;2023-06-01T08:40:42;100946.77;;;42.47;14.40
77013;BME280;67260;53.130;17.982;2023-06-01T08:43:21;100944.93;;;42.87;14.18
77013;BME280;67260;53.130;17.982;2023-06-01T08:45:49;100943.58;;;42.14;14.61
77013;BME280;67260;53.130;17.982;2023-06-01T08:48:21;100942.80;;;42.40;14.50
77013;BME280;67260;53.130;17.982;2023-06-01T08:50:49;100943.45;;;42.90;14.28
77013;BME280;67260;53.130;17.982;2023-06-01T08:53:20;100935.45;;;43.21;13.72
77013;BME280;67260;53.130;17.982;2023-06-01T08:55:52;100930.41;;;41.92;14.32
77013;BME280;67260;53.130;17.982;2023-06-01T08:58:19;100936.30;;;42.17;14.34
77013;BME280;67260;53.130;17.982;2023-06-01T09:00:50;100933.36;;;41.33;14.69
77013;BME280;67260;53.130;17.982;2023-06-01T09:03:20;100934.65;;;40.67;15.46
77013;BME280;67260;53.130;17.982;2023-06-01T09:05:46;100937.16;;;40.42;15.53
77013;BME280;67260;53.130;17.982;2023-06-01T09:08:13;100937.50;;;40.54;15.73
77013;BME280;67260;53.130;17.982;2023-06-01T09:10:39;100933.89;;;40.06;15.79
77013;BME280;67260;53.130;17.982;2023-06-01T09:13:07;100939.66;;;38.70;16.80
77013;BME280;67260;53.130;17.982;2023-06-01T09:15:33;100943.61;;;38.33;17.16
77013;BME280;67260;53.130;17.982;2023-06-01T09:18:05;100942.65;;;38.52;17.24
77013;BME280;67260;53.130;17.982;2023-06-01T09:20:33;100941.73;;;37.94;17.37
77013;BME280;67260;53.130;17.982;2023-06-01T09:23:11;100939.08;;;38.80;16.96
77013;BME280;67260;53.130;17.982;2023-06-01T09:26:06;100937.76;;;39.85;16.53
77013;BME280;67260;53.130;17.982;2023-06-01T09:28:55;100933.18;;;40.50;15.94
77013;BME280;67260;53.130;17.982;2023-06-01T09:31:41;100932.12;;;41.03;15.49
77013;BME280;67260;53.130;17.982;2023-06-01T09:34:09;100935.25;;;41.73;15.02
77013;BME280;67260;53.130;17.982;2023-06-01T09:36:44;100932.88;;;41.53;15.05
77013;BME280;67260;53.130;17.982;2023-06-01T09:39:16;100933.23;;;40.52;15.74
77013;BME280;67260;53.130;17.982;2023-06-01T09:41:56;100935.86;;;41.15;15.33
77013;BME280;67260;53.130;17.982;2023-06-01T09:44:31;100929.71;;;41.76;14.55
77013;BME280;67260;53.130;17.982;2023-06-01T09:47:06;100932.34;;;41.62;14.61
77013;BME280;67260;53.130;17.982;2023-06-01T09:49:53;100936.68;;;41.23;15.02
77013;BME280;67260;53.130;17.982;2023-06-01T09:52:20;100927.67;;;41.41;14.60
77013;BME280;67260;53.130;17.982;2023-06-01T09:54:48;100925.20;;;41.01;14.72
77013;BME280;67260;53.130;17.982;2023-06-01T09:57:24;100923.85;;;41.33;14.96
77013;BME280;67260;53.130;17.982;2023-06-01T09:59:50;100927.98;;;41.68;14.51
77013;BME280;67260;53.130;17.982;2023-06-01T10:02:21;100930.13;;;41.90;14.21
77013;BME280;67260;53.130;17.982;2023-06-01T10:04:50;100929.55;;;41.94;13.87
77013;BME280;67260;53.130;17.982;2023-06-01T10:07:18;100922.98;;;41.23;14.24
77013;BME280;67260;53.130;17.982;2023-06-01T10:09:51;100923.95;;;40.88;14.66
77013;BME280;67260;53.130;17.982;2023-06-01T10:12:18;100926.73;;;41.23;14.70
77013;BME280;67260;53.130;17.982;2023-06-01T10:14:44;100928.02;;;41.56;14.76
77013;BME280;67260;53.130;17.982;2023-06-01T10:17:11;100927.58;;;41.27;14.76
77013;BME280;67260;53.130;17.982;2023-06-01T10:19:41;100922.52;;;40.98;14.65
77013;BME280;67260;53.130;17.982;2023-06-01T10:22:07;100925.19;;;41.15;14.84
77013;BME280;67260;53.130;17.982;2023-06-01T10:24:35;100923.84;;;40.17;15.57
77013;BME280;67260;53.130;17.982;2023-06-01T10:29:42;100915.71;;;40.43;15.38
77013;BME280;67260;53.130;17.982;2023-06-01T10:32:44;100913.54;;;40.71;15.05
77013;BME280;67260;53.130;17.982;2023-06-01T10:40:37;100912.17;;;38.83;16.19
77013;BME280;67260;53.130;17.982;2023-06-01T10:43:03;100910.73;;;38.21;16.65
77013;BME280;67260;53.130;17.982;2023-06-01T10:45:40;100910.96;;;38.39;16.82
77013;BME280;67260;53.130;17.982;2023-06-01T10:48:11;100909.85;;;38.36;16.71
77013;BME280;67260;53.130;17.982;2023-06-01T10:50:41;100910.93;;;38.28;16.77
77013;BME280;67260;53.130;17.982;2023-06-01T10:53:30;100901.83;;;38.30;16.91
77013;BME280;67260;53.130;17.982;2023-06-01T10:58:46;100895.78;;;36.70;17.75
77013;BME280;67260;53.130;17.982;2023-06-01T11:01:19;100895.67;;;36.25;18.26
77013;BME280;67260;53.130;17.982;2023-06-01T11:03:48;100899.30;;;36.42;18.40
77013;BME280;67260;53.130;17.982;2023-06-01T11:06:28;100889.72;;;36.57;18.08
77013;BME280;67260;53.130;17.982;2023-06-01T11:08:57;100886.63;;;36.64;18.52
77013;BME280;67260;53.130;17.982;2023-06-01T11:14:18;100892.33;;;36.58;18.30
77013;BME280;67260;53.130;17.982;2023-06-01T11:16:45;100893.27;;;36.00;18.61
77013;BME280;67260;53.130;17.982;2023-06-01T11:19:19;100894.78;;;35.21;19.47
77013;BME280;67260;53.130;17.982;2023-06-01T11:21:57;100890.91;;;35.16;19.81
77013;BME280;67260;53.130;17.982;2023-06-01T11:24:36;100895.83;;;34.79;20.11
77013;BME280;67260;53.130;17.982;2023-06-01T11:27:09;100891.75;;;34.51;20.19
77013;BME280;67260;53.130;17.982;2023-06-01T11:29:36;100892.73;;;34.30;20.17
77013;BME280;67260;53.130;17.982;2023-06-01T11:32:05;100885.80;;;33.92;20.23
77013;BME280;67260;53.130;17.982;2023-06-01T11:36:57;100882.57;;;33.85;20.41
77013;BME280;67260;53.130;17.982;2023-06-01T11:39:26;100879.14;;;33.63;20.39
77013;BME280;67260;53.130;17.982;2023-06-01T11:42:11;100875.00;;;33.15;20.68
77013;BME280;67260;53.130;17.982;2023-06-01T11:44:39;100875.66;;;32.86;20.93
77013;BME280;67260;53.130;17.982;2023-06-01T11:47:07;100874.30;;;32.62;21.19
77013;BME280;67260;53.130;17.982;2023-06-01T11:49:42;100872.81;;;32.37;21.43
77013;BME280;67260;53.130;17.982;2023-06-01T11:52:10;100867.63;;;31.91;22.27
77013;BME280;67260;53.130;17.982;2023-06-01T11:54:37;100865.33;;;31.33;22.90
77013;BME280;67260;53.130;17.982;2023-06-01T11:57:04;100865.09;;;31.07;23.15
77013;BME280;67260;53.130;17.982;2023-06-01T11:59:38;100863.85;;;31.14;23.11
77013;BME280;67260;53.130;17.982;2023-06-01T12:02:33;100863.09;;;31.32;23.13
77013;BME280;67260;53.130;17.982;2023-06-01T12:05:01;100858.41;;;31.52;23.29
77013;BME280;67260;53.130;17.982;2023-06-01T12:07:47;100861.98;;;31.61;23.32
77013;BME280;67260;53.130;17.982;2023-06-01T12:10:16;100856.48;;;31.63;23.16
77013;BME280;67260;53.130;17.982;2023-06-01T12:12:43;100851.62;;;31.27;23.37
77013;BME280;67260;53.130;17.982;2023-06-01T12:15:10;100851.72;;;30.92;23.98
77013;BME280;67260;53.130;17.982;2023-06-01T12:17:51;100848.58;;;30.73;24.06
77013;BME280;67260;53.130;17.982;2023-06-01T12:22:59;100849.13;;;30.84;23.97
77013;BME280;67260;53.130;17.982;2023-06-01T12:25:29;100843.85;;;30.77;24.20
77013;BME280;67260;53.130;17.982;2023-06-01T12:28:07;100840.61;;;30.79;24.20
77013;BME280;67260;53.130;17.982;2023-06-01T12:30:35;100835.04;;;30.80;23.89
77013;BME280;67260;53.130;17.982;2023-06-01T12:33:02;100837.95;;;30.85;23.69
77013;BME280;67260;53.130;17.982;2023-06-01T12:35:30;100840.02;;;30.79;23.66
77013;BME280;67260;53.130;17.982;2023-06-01T12:38:09;100832.91;;;30.74;24.04
77013;BME280;67260;53.130;17.982;2023-06-01T12:40:36;100829.62;;;30.65;24.42
77013;BME280;67260;53.130;17.982;2023-06-01T12:43:03;100821.45;;;30.25;24.49
77013;BME280;67260;53.130;17.982;2023-06-01T12:45:36;100821.88;;;29.63;24.94
77013;BME280;67260;53.130;17.982;2023-06-01T12:48:02;100829.04;;;28.82;25.67
77013;BME280;67260;53.130;17.982;2023-06-01T12:50:29;100825.80;;;28.34;26.30
77013;BME280;67260;53.130;17.982;2023-06-01T12:52:55;100820.30;;;28.06;26.86
77013;BME280;67260;53.130;17.982;2023-06-01T12:55:21;100817.93;;;27.88;27.33
77013;BME280;67260;53.130;17.982;2023-06-01T12:57:52;100819.48;;;27.71;27.28
77013;BME280;67260;53.130;17.982;2023-06-01T13:00:19;100817.40;;;27.71;27.40
77013;BME280;67260;53.130;17.982;2023-06-01T13:02:46;100813.38;;;27.65;27.52
77013;BME280;67260;53.130;17.982;2023-06-01T13:05:16;100814.90;;;27.53;27.98
77013;BME280;67260;53.130;17.982;2023-06-01T13:07:43;100817.25;;;27.23;28.20
77013;BME280;67260;53.130;17.982;2023-06-01T13:10:13;100818.50;;;27.07;28.14
77013;BME280;67260;53.130;17.982;2023-06-01T13:12:39;100818.64;;;27.03;28.51
77013;BME280;67260;53.130;17.982;2023-06-01T13:15:08;100821.88;;;26.96;28.76
77013;BME280;67260;53.130;17.982;2023-06-01T13:17:35;100814.31;;;26.76;28.80
77013;BME280;67260;53.130;17.982;2023-06-01T13:20:01;100814.33;;;26.43;29.29